createdAt,value
2018-12-07T00:04:39.749Z,98961.09
2018-12-07T00:09:54.824Z,98952.30
2018-12-07T00:15:09.745Z,98940.63
2018-12-07T00:20:24.793Z,98927.77
2018-12-07T00:25:39.870Z,98925.79
2018-12-07T00:30:54.815Z,98920.97
2018-12-07T00:36:09.740Z,98915.16
2018-12-07T00:41:24.783Z,98910.92
2018-12-07T00:46:39.698Z,98907.06
2018-12-07T00:51:54.621Z,98905.98
2018-12-07T00:57:09.515Z,98904.48
2018-12-07T01:02:24.438Z,98901.43
2018-12-07T01:07:39.439Z,98905.25
2018-12-07T01:12:54.575Z,98895.28
2018-12-07T01:18:32.110Z,98890.13
2018-12-07T01:23:47.030Z,98885.64
2018-12-07T01:29:01.975Z,98878.76
2018-12-07T01:34:17.035Z,98868.00
2018-12-07T01:39:31.979Z,98866.95
2018-12-07T01:44:46.999Z,98857.42
2018-12-07T01:50:02.055Z,98853.33
2018-12-07T01:55:17.192Z,98839.53
2018-12-07T02:00:32.359Z,98843.31
2018-12-07T02:05:47.389Z,98834.23
2018-12-07T02:11:33.663Z,98843.15
2018-12-07T02:17:23.727Z,98827.31
2018-12-07T02:22:38.646Z,98828.08
2018-12-07T02:27:59.502Z,98820.64
2018-12-07T02:33:14.432Z,98821.00
2018-12-07T02:38:29.372Z,98813.59
2018-12-07T02:43:44.280Z,98810.86
2018-12-07T02:48:59.195Z,98817.05
2018-12-07T02:54:14.107Z,98809.41
2018-12-07T02:59:28.999Z,98803.30
2018-12-07T03:04:43.903Z,98796.05
2018-12-07T03:09:58.977Z,98792.68
2018-12-07T03:15:14.045Z,98795.45
2018-12-07T03:20:28.976Z,98772.32
2018-12-07T03:25:44.108Z,98768.13
2018-12-07T03:30:59.036Z,98767.48
2018-12-07T03:36:14.086Z,98764.47
2018-12-07T03:41:29.125Z,98760.04
2018-12-07T03:46:44.050Z,98760.41
2018-12-07T03:51:58.979Z,98748.02
2018-12-07T03:57:13.895Z,98741.54
2018-12-07T04:02:29.169Z,98743.39
2018-12-07T04:07:44.216Z,98738.45
2018-12-07T04:12:59.128Z,98740.94
2018-12-07T04:18:14.154Z,98732.38
2018-12-07T04:23:29.059Z,98721.22
2018-12-07T04:28:44.228Z,98718.25
2018-12-07T04:33:59.156Z,98737.14
2018-12-07T04:39:14.103Z,98724.56
2018-12-07T04:44:29.038Z,98718.89
2018-12-07T04:49:43.968Z,98723.72
2018-12-07T04:54:59.093Z,98711.78
2018-12-07T05:00:14.283Z,98715.92
2018-12-07T05:05:29.210Z,98707.44
2018-12-07T05:10:44.227Z,98697.20
2018-12-07T05:15:59.177Z,98694.94
2018-12-07T05:21:24.586Z,98695.59
2018-12-07T05:26:39.638Z,98683.86
2018-12-07T05:31:54.677Z,98669.27
2018-12-07T05:37:09.700Z,98667.86
2018-12-07T05:42:24.736Z,98675.86
2018-12-07T05:47:39.794Z,98664.50
2018-12-07T05:52:54.711Z,98672.20
2018-12-07T05:58:09.619Z,98664.66
2018-12-07T06:03:24.557Z,98652.36
2018-12-07T06:08:39.573Z,98652.72
2018-12-07T06:13:54.648Z,98651.08
2018-12-07T06:19:12.183Z,98650.67
2018-12-07T06:24:28.382Z,98638.87
2018-12-07T06:29:43.376Z,98634.09
2018-12-07T06:34:58.316Z,98630.95
2018-12-07T06:40:13.388Z,98623.80
2018-12-07T06:45:28.441Z,98603.25
2018-12-07T06:50:43.644Z,98601.31
2018-12-07T06:55:58.575Z,98598.59
2018-12-07T07:01:13.510Z,98602.60
2018-12-07T07:06:28.620Z,98583.61
2018-12-07T07:11:43.655Z,98571.13
2018-12-07T07:16:58.725Z,98555.23
2018-12-07T07:22:13.648Z,98557.72
2018-12-07T07:27:28.725Z,98547.52
2018-12-07T07:32:43.678Z,98550.38
2018-12-07T07:37:58.613Z,98553.46
2018-12-07T07:43:13.869Z,98551.58
2018-12-07T07:48:29.101Z,98543.54
2018-12-07T07:53:44.111Z,98551.02
2018-12-07T07:58:59.032Z,98552.55
2018-12-07T08:04:14.139Z,98547.97
2018-12-07T08:09:29.172Z,98531.74
2018-12-07T08:14:44.215Z,98535.23
2018-12-07T08:19:59.135Z,98541.45
2018-12-07T08:25:14.112Z,98529.98
2018-12-07T08:30:29.230Z,98525.52
2018-12-07T08:35:44.190Z,98522.47
2018-12-07T08:40:59.261Z,98519.84
2018-12-07T08:46:14.242Z,98514.17
2018-12-07T08:51:29.413Z,98499.11
2018-12-07T08:56:44.412Z,98494.45
2018-12-07T09:01:59.491Z,98495.48
2018-12-07T09:07:14.556Z,98487.89
2018-12-07T09:12:29.679Z,98492.55
2018-12-07T09:17:44.647Z,98489.55
2018-12-07T09:22:59.626Z,98494.48
2018-12-07T09:28:22.459Z,98502.31
2018-12-07T09:33:37.522Z,98493.28
2018-12-07T09:38:52.683Z,98474.13
2018-12-07T09:44:07.645Z,98474.61
2018-12-07T09:49:22.702Z,98460.40
2018-12-07T09:54:37.755Z,98442.73
2018-12-07T09:59:52.811Z,98441.33
2018-12-07T10:05:08.075Z,98441.22
2018-12-07T10:10:23.115Z,98415.27
2018-12-07T10:15:38.041Z,98407.80
2018-12-07T10:20:53.193Z,98401.06
2018-12-07T10:26:08.303Z,98399.20
2018-12-07T10:31:23.458Z,98387.86
2018-12-07T10:36:38.435Z,98370.97
2018-12-07T10:41:53.448Z,98361.61
2018-12-07T10:47:08.474Z,98348.05
2018-12-07T10:52:32.631Z,98343.80
2018-12-07T10:57:47.884Z,98322.86
2018-12-07T11:03:09.011Z,98309.39
2018-12-07T11:08:29.776Z,98293.78
2018-12-07T11:13:50.446Z,98295.17
2018-12-07T11:19:11.165Z,98279.83
2018-12-07T11:24:31.977Z,98262.83
2018-12-07T11:29:52.663Z,98258.79
2018-12-07T11:35:13.271Z,98235.19
2018-12-07T11:40:28.803Z,98221.23
2018-12-07T11:45:44.240Z,98203.36
2018-12-07T11:50:59.439Z,98195.06
2018-12-07T11:56:14.522Z,98190.11
2018-12-07T12:01:30.209Z,98161.41
2018-12-07T12:06:45.419Z,98157.67
2018-12-07T12:12:00.564Z,98134.22
2018-12-07T12:17:15.773Z,98124.50
2018-12-07T12:22:35.319Z,98123.30
2018-12-07T12:27:50.399Z,98106.37
2018-12-07T12:33:05.369Z,98068.34
2018-12-07T12:38:20.508Z,98055.51
2018-12-07T12:43:35.512Z,98039.21
2018-12-07T12:48:50.485Z,98050.07
2018-12-07T12:54:09.820Z,98037.42
2018-12-07T12:59:27.111Z,98030.41
2018-12-07T13:04:45.639Z,98010.86
2018-12-07T13:10:02.800Z,97990.66
2018-12-07T13:15:18.813Z,97975.64
2018-12-07T13:20:35.860Z,97963.95
2018-12-07T13:25:55.937Z,97945.00
2018-12-07T13:31:13.440Z,97925.22
2018-12-07T13:36:30.001Z,97900.98
2018-12-07T13:41:50.292Z,97910.69
2018-12-07T13:47:06.832Z,97915.05
2018-12-07T13:52:22.929Z,97904.87
2018-12-07T13:57:38.980Z,97905.19
2018-12-07T14:02:54.794Z,97911.97
2018-12-07T14:08:11.518Z,97906.28
2018-12-07T14:13:29.887Z,97859.89
2018-12-07T14:18:47.774Z,97876.75
2018-12-07T14:24:05.668Z,97863.97
2018-12-07T14:35:31.822Z,97869.84
2018-12-07T14:40:47.773Z,97859.56
2018-12-07T14:46:05.359Z,97862.36
2018-12-07T14:51:21.674Z,97841.39
2018-12-07T14:56:42.338Z,97839.53
2018-12-07T15:01:58.754Z,97815.77
2018-12-07T15:07:14.284Z,97830.97
2018-12-07T15:12:29.878Z,97804.74
2018-12-07T15:17:45.204Z,97805.53
2018-12-07T15:23:00.430Z,97788.69
2018-12-07T15:40:35.824Z,97752.22
2018-12-07T15:45:52.522Z,97749.42
2018-12-07T15:51:10.282Z,97726.04
2018-12-07T15:56:27.372Z,97711.22
2018-12-07T16:01:43.104Z,97678.61
2018-12-07T16:06:58.703Z,97670.62
2018-12-07T16:12:15.545Z,97676.30
2018-12-07T16:17:32.000Z,97659.93
2018-12-07T16:22:47.635Z,97625.45
2018-12-07T16:28:03.608Z,97612.80
2018-12-07T16:33:19.228Z,97621.00
2018-12-07T16:38:36.899Z,97597.41
2018-12-07T16:43:52.459Z,97599.54
2018-12-07T16:49:08.256Z,97580.55
2018-12-07T16:54:34.210Z,97570.73
2018-12-07T17:05:03.688Z,97546.17
2018-12-07T17:10:23.396Z,97553.73
2018-12-07T17:15:40.377Z,97547.20
2018-12-07T17:20:58.219Z,97548.67
2018-12-07T17:26:14.302Z,97549.98
2018-12-07T17:31:30.260Z,97524.53
2018-12-07T17:36:48.336Z,97520.65
2018-12-07T17:42:07.201Z,97505.11
2018-12-07T17:47:23.450Z,97488.63
2018-12-07T17:52:39.223Z,97490.79
2018-12-07T17:57:55.482Z,97485.06
2018-12-07T18:03:11.028Z,97461.20
2018-12-07T18:08:28.500Z,97449.30
2018-12-07T18:13:44.316Z,97451.05
2018-12-07T18:19:02.103Z,97465.20
2018-12-07T18:24:19.412Z,97466.34
2018-12-07T18:29:41.665Z,97469.64
2018-12-07T18:34:59.937Z,97483.43
2018-12-07T18:40:16.032Z,97513.70
2018-12-07T18:45:33.304Z,97496.61
2018-12-07T18:50:50.843Z,97472.30
2018-12-07T18:56:08.084Z,97495.23
2018-12-07T19:01:26.333Z,97498.81
2018-12-07T19:06:42.734Z,97514.31
2018-12-07T19:12:00.528Z,97557.48
2018-12-07T19:17:16.509Z,97568.67
2018-12-07T19:22:32.281Z,97603.69
2018-12-07T19:27:47.770Z,97625.25
2018-12-07T19:33:04.683Z,97630.06
2018-12-07T19:38:20.544Z,97676.66
2018-12-07T19:43:38.100Z,97692.92
2018-12-07T19:48:56.072Z,97687.52
2018-12-07T19:54:12.349Z,97711.52
2018-12-07T19:59:31.121Z,97722.61
2018-12-07T20:04:47.907Z,97724.00
2018-12-07T20:10:04.602Z,97734.30
2018-12-07T20:15:20.926Z,97746.46
2018-12-07T20:20:38.131Z,97766.92
2018-12-07T20:25:55.724Z,97784.41
2018-12-07T20:31:15.464Z,97801.42
2018-12-07T20:36:32.515Z,97794.34
2018-12-07T20:41:52.393Z,97826.03
2018-12-07T20:47:25.027Z,97844.41
2018-12-07T20:52:41.929Z,97842.30
2018-12-07T20:57:58.714Z,97862.52
2018-12-07T21:03:15.854Z,97879.78
2018-12-07T21:08:51.891Z,97904.87
2018-12-07T21:14:26.456Z,97910.11
2018-12-07T21:20:47.918Z,97948.72
2018-12-07T21:26:07.807Z,97961.54
2018-12-07T21:31:29.567Z,97963.06
2018-12-07T21:36:47.112Z,97975.98
2018-12-07T21:42:05.161Z,97990.44
2018-12-07T21:47:30.132Z,97987.20
2018-12-07T21:52:47.902Z,97999.91
2018-12-07T21:58:07.139Z,98002.33
2018-12-07T22:03:25.490Z,98005.67
2018-12-07T22:08:43.876Z,98023.73
2018-12-07T22:14:02.217Z,98037.35
2018-12-07T22:19:18.569Z,98055.58
2018-12-07T22:24:38.111Z,98072.83
2018-12-07T22:29:58.549Z,98071.47
2018-12-07T22:35:14.539Z,98082.20
2018-12-07T22:46:07.899Z,98100.12
2018-12-07T22:51:31.283Z,98108.92
2018-12-07T22:56:48.546Z,98107.65
2018-12-07T23:02:07.320Z,98106.92
2018-12-07T23:07:24.834Z,98117.84
2018-12-07T23:12:40.105Z,98126.28
2018-12-07T23:18:00.528Z,98147.31
2018-12-07T23:23:16.918Z,98150.58
2018-12-07T23:28:33.356Z,98150.26
2018-12-07T23:33:52.376Z,98158.52
2018-12-07T23:39:09.912Z,98185.53
2018-12-07T23:50:36.675Z,98169.56
2018-12-07T23:55:52.724Z,98174.97
